Time;durP1;ratioP1;P1;durP2;ratioP2;P2;SDS_P1;SDS_P2;PMS_P1;PMS_P2;Temp;Humidity;BMP_temperature;BMP_pressure;BME280_temperature;BME280_humidity;BME280_pressure;Samples;Min_cycle;Max_cycle;Signal;HPM_P1;HPM_P2
2022/10/18 00:00:16;;;;;;;10.27;6.10;;;;;;;7.70;71.20;98641.31;5067443;28;20191;-74
2022/10/18 00:02:43;;;;;;;16.00;8.30;;;;;;;7.80;71.57;98630.03;5066547;28;20215;-75
2022/10/18 00:05:12;;;;;;;8.80;6.40;;;;;;;7.95;70.32;98627.31;5068243;28;20188;-77
2022/10/18 00:07:39;;;;;;;8.60;6.30;;;;;;;8.20;70.18;98625.34;5068575;28;20502;-77
2022/10/18 00:10:07;;;;;;;8.83;6.77;;;;;;;8.29;69.83;98619.22;5068137;28;20213;-75
2022/10/18 00:12:35;;;;;;;9.10;6.83;;;;;;;8.40;68.91;98613.06;5068129;28;20280;-74
2022/10/18 00:15:05;;;;;;;7.97;5.97;;;;;;;8.40;68.10;98617.38;5069313;28;20189;-76
2022/10/18 00:17:36;;;;;;;7.83;6.20;;;;;;;8.10;68.82;98618.53;5069319;28;20212;-75
2022/10/18 00:20:05;;;;;;;9.53;6.03;;;;;;;7.90;69.87;98631.66;5067885;28;20197;-78
2022/10/18 00:22:34;;;;;;;9.63;5.83;;;;;;;7.84;70.86;98620.53;5068283;28;20192;-76
2022/10/18 00:25:02;;;;;;;6.20;5.23;;;;;;;7.86;70.56;98616.22;5067926;28;20188;-76
2022/10/18 00:27:30;;;;;;;8.20;5.90;;;;;;;7.78;70.86;98602.53;5067976;28;20669;-75
2022/10/18 00:29:58;;;;;;;7.53;5.60;;;;;;;7.76;71.06;98612.03;5066803;28;20217;-75
2022/10/18 00:32:25;;;;;;;7.20;5.70;;;;;;;7.86;71.07;98613.63;5067932;28;20230;-76
2022/10/18 00:34:52;;;;;;;9.97;5.50;;;;;;;7.74;70.76;98603.44;5068438;28;20660;-75
2022/10/18 00:37:19;;;;;;;9.37;6.23;;;;;;;7.57;71.72;98595.00;5067971;28;20192;-75
2022/10/18 00:39:46;;;;;;;8.90;5.47;;;;;;;7.62;71.68;98586.38;5067687;28;20203;-76
2022/10/18 00:42:18;;;;;;;7.57;5.17;;;;;;;7.64;71.80;98597.53;5067631;28;20195;-78
2022/10/18 00:44:44;;;;;;;7.80;5.00;;;;;;;7.65;72.07;98591.50;5066346;28;20196;-77
2022/10/18 00:47:15;;;;;;;5.87;4.60;;;;;;;7.43;71.85;98555.63;5066865;28;20191;-77
2022/10/18 00:49:49;;;;;;;8.20;5.40;;;;;;;7.72;71.82;98592.28;5067201;28;20222;-78
2022/10/18 00:52:25;;;;;;;7.40;5.13;;;;;;;7.76;71.58;98591.38;5066350;28;20195;-78
2022/10/18 00:54:54;;;;;;;9.03;5.23;;;;;;;7.88;71.32;98599.00;5067349;28;20183;-76
2022/10/18 00:57:23;;;;;;;6.73;5.23;;;;;;;7.70;71.78;98587.16;5067422;28;20183;-76
2022/10/18 00:59:52;;;;;;;5.50;4.83;;;;;;;7.61;71.89;98587.22;5067181;28;20847;-76
2022/10/18 01:02:19;;;;;;;6.30;5.17;;;;;;;7.72;71.56;98588.00;5065886;28;20218;-78
2022/10/18 01:04:47;;;;;;;10.33;6.07;;;;;;;7.68;71.57;98590.63;5067361;28;20773;-77
2022/10/18 01:07:35;;;;;;;9.20;5.20;;;;;;;7.71;71.56;98585.41;5067032;28;20203;-77
2022/10/18 01:10:16;;;;;;;8.80;5.20;;;;;;;7.79;71.73;98586.22;5067349;28;20321;-76
2022/10/18 01:12:58;;;;;;;7.53;4.63;;;;;;;7.95;70.73;98582.59;5069936;28;20687;-77
2022/10/18 01:15:32;;;;;;;5.70;4.67;;;;;;;7.93;70.69;98569.69;5067309;28;20742;-79
2022/10/18 01:18:27;;;;;;;6.63;4.80;;;;;;;8.17;70.04;98577.19;5067763;28;20221;-77
2022/10/18 01:21:03;;;;;;;8.73;4.63;;;;;;;7.93;70.97;98567.13;5066827;28;20192;-76
2022/10/18 01:24:07;;;;;;;6.97;4.97;;;;;;;7.67;72.17;98563.97;5066993;28;20191;-75
2022/10/18 01:26:53;;;;;;;6.13;4.90;;;;;;;7.50;71.95;98563.25;5067295;28;20586;-77
2022/10/18 01:29:35;;;;;;;9.07;4.53;;;;;;;7.42;72.41;98559.91;5048604;28;20223;-76
2022/10/18 01:32:06;;;;;;;6.30;5.07;;;;;;;7.40;73.31;98551.34;5066771;28;20216;-78
2022/10/18 01:34:36;;;;;;;6.53;4.40;;;;;;;7.44;72.41;98563.31;5066827;28;20221;-76
2022/10/18 01:37:08;;;;;;;5.43;4.60;;;;;;;7.67;71.67;98556.22;5066937;28;20774;-77
2022/10/18 01:39:39;;;;;;;7.10;4.20;;;;;;;7.75;69.96;98549.28;5067160;28;20193;-78
2022/10/18 01:42:09;;;;;;;8.00;4.90;;;;;;;7.51;71.03;98534.06;5065368;28;20577;-78
2022/10/18 01:44:38;;;;;;;7.00;4.27;;;;;;;7.36;71.61;98531.63;5065976;28;20190;-78
2022/10/18 01:47:08;;;;;;;8.53;5.30;;;;;;;7.47;71.96;98547.00;5066776;28;20185;-78
2022/10/18 01:49:35;;;;;;;7.40;4.37;;;;;;;7.49;70.88;98550.41;5066936;28;20218;-78
2022/10/18 01:52:02;;;;;;;5.73;4.57;;;;;;;7.62;70.91;98544.28;5066486;28;20191;-77
2022/10/18 01:54:34;;;;;;;7.07;4.77;;;;;;;7.71;69.48;98563.06;5066530;28;20642;-79
2022/10/18 01:57:17;;;;;;;6.87;4.30;;;;;;;7.59;70.36;98554.59;5067103;28;20219;-75
2022/10/18 02:00:07;;;;;;;11.03;4.83;;;;;;;7.61;70.60;98548.56;5067715;28;20696;-78
2022/10/18 02:02:46;;;;;;;8.20;4.67;;;;;;;7.56;70.47;98559.81;5070740;28;20193;-78
2022/10/18 02:05:34;;;;;;;5.57;4.40;;;;;;;7.44;70.52;98547.88;5070777;28;20188;-78
2022/10/18 02:08:11;;;;;;;6.80;4.90;;;;;;;7.42;70.88;98543.63;5070462;28;20198;-77
2022/10/18 02:11:11;;;;;;;7.20;5.00;;;;;;;7.46;71.88;98543.53;5072286;28;20191;-76
2022/10/18 02:13:47;;;;;;;7.70;4.93;;;;;;;7.48;71.89;98549.53;5070474;28;20192;-77
2022/10/18 02:16:27;;;;;;;7.30;5.07;;;;;;;7.31;71.70;98542.00;5070889;28;20656;-77
2022/10/18 02:19:01;;;;;;;10.37;5.90;;;;;;;7.31;73.04;98525.66;5070720;28;20220;-76
2022/10/18 02:21:30;;;;;;;6.90;5.17;;;;;;;7.42;71.71;98530.72;5070068;28;20216;-76
2022/10/18 02:23:59;;;;;;;10.57;5.53;;;;;;;7.46;71.32;98533.25;5070117;28;20206;-75
2022/10/18 02:26:26;;;;;;;8.67;6.03;;;;;;;7.29;71.40;98528.25;5070309;28;20713;-76
2022/10/18 02:28:54;;;;;;;10.07;6.20;;;;;;;7.24;72.87;98545.47;5068889;28;20214;-76
2022/10/18 02:31:20;;;;;;;7.43;5.83;;;;;;;7.37;72.39;98541.06;5068728;28;20189;-76
2022/10/18 02:33:56;;;;;;;12.07;7.13;;;;;;;7.30;71.73;98535.13;5069880;28;20671;-76
2022/10/18 02:36:39;;;;;;;7.83;6.43;;;;;;;7.44;71.25;98541.88;5070467;28;20733;-76
2022/10/18 02:39:13;;;;;;;9.20;6.73;;;;;;;7.49;71.14;98537.50;5069718;28;20192;-76
2022/10/18 02:41:41;;;;;;;8.77;6.90;;;;;;;7.39;71.97;98534.19;5069788;28;20193;-76
2022/10/18 02:44:08;;;;;;;15.87;7.67;;;;;;;7.26;70.37;98528.28;5069544;28;20223;-75
2022/10/18 02:46:35;;;;;;;12.90;9.37;;;;;;;7.34;70.22;98530.78;5069831;28;20181;-77
2022/10/18 02:49:02;;;;;;;15.00;8.10;;;;;;;7.25;70.39;98536.03;5069913;28;20219;-76
2022/10/18 02:51:29;;;;;;;11.07;7.60;;;;;;;7.25;70.65;98539.44;5068297;28;20187;-76
2022/10/18 02:53:56;;;;;;;9.47;7.40;;;;;;;7.29;71.43;98543.69;5069833;28;20210;-76
2022/10/18 02:56:23;;;;;;;9.60;7.27;;;;;;;7.34;69.55;98546.25;5068367;28;20686;-75
2022/10/18 02:58:50;;;;;;;12.73;7.27;;;;;;;7.08;70.68;98514.72;5069499;28;20687;-77
2022/10/18 03:01:17;;;;;;;7.80;6.57;;;;;;;7.25;69.39;98534.28;5069419;28;21287;-77
2022/10/18 03:03:45;;;;;;;9.30;6.20;;;;;;;7.24;69.70;98542.91;5069432;28;20688;-75
2022/10/18 03:06:12;;;;;;;11.03;5.93;;;;;;;7.29;69.03;98545.44;5070558;28;20241;-76
2022/10/18 03:08:39;;;;;;;8.80;5.87;;;;;;;6.70;69.66;98547.63;5071755;28;20199;-77
2022/10/18 03:11:06;;;;;;;7.87;5.20;;;;;;;6.42;71.89;98539.19;5069105;28;20190;-76
2022/10/18 03:13:33;;;;;;;10.20;5.70;;;;;;;6.48;71.12;98549.44;5069002;28;20557;-76
2022/10/18 03:16:00;;;;;;;9.57;4.73;;;;;;;6.39;70.62;98540.06;5069287;28;20201;-75
2022/10/18 03:18:28;;;;;;;6.13;5.13;;;;;;;6.27;70.67;98549.56;5069172;28;20282;-75
2022/10/18 03:20:55;;;;;;;7.77;4.93;;;;;;;5.99;71.56;98555.69;5069211;28;20628;-76
2022/10/18 03:23:22;;;;;;;8.47;4.80;;;;;;;5.89;72.17;98554.88;5069031;28;20591;-75
2022/10/18 03:25:48;;;;;;;5.40;4.27;;;;;;;5.69;72.52;98554.00;5068818;28;20707;-75
2022/10/18 03:28:18;;;;;;;9.10;5.43;;;;;;;5.45;72.82;98539.50;5069198;28;20187;-76
2022/10/18 03:30:45;;;;;;;6.77;4.67;;;;;;;5.62;73.89;98544.63;5068832;28;20229;-76
2022/10/18 03:33:12;;;;;;;6.53;5.23;;;;;;;5.63;73.77;98554.03;5068781;28;20218;-77
2022/10/18 03:35:39;;;;;;;9.27;6.10;;;;;;;5.42;74.74;98549.78;5068681;28;20280;-75
2022/10/18 03:38:06;;;;;;;13.90;9.40;;;;;;;5.35;75.27;98547.22;5068808;28;20247;-75
2022/10/18 03:40:36;;;;;;;18.73;13.07;;;;;;;5.30;76.96;98547.22;5068707;28;20226;-76
2022/10/18 03:43:02;;;;;;;20.60;13.13;;;;;;;5.39;77.47;98560.06;5068530;28;20191;-77
2022/10/18 03:45:30;;;;;;;22.20;14.47;;;;;;;5.28;77.96;98545.50;5068812;28;20189;-76
2022/10/18 03:47:57;;;;;;;21.83;13.77;;;;;;;5.32;77.33;98557.50;5066962;28;20591;-76
2022/10/18 03:50:24;;;;;;;21.83;13.30;;;;;;;5.37;77.59;98550.66;5068508;28;20222;-76
2022/10/18 03:52:53;;;;;;;17.77;11.63;;;;;;;5.54;77.42;98564.34;5068409;28;20186;-75
2022/10/18 03:55:20;;;;;;;15.93;10.33;;;;;;;5.57;77.88;98560.03;5068503;28;20194;-76
2022/10/18 03:57:47;;;;;;;15.87;9.37;;;;;;;5.58;77.88;98558.34;5068315;28;20220;-75
2022/10/18 04:00:15;;;;;;;12.70;9.00;;;;;;;5.64;77.62;98558.31;5067570;28;20659;-75
2022/10/18 04:02:42;;;;;;;13.77;8.87;;;;;;;5.74;77.06;98562.56;5070614;28;20189;-77
2022/10/18 04:05:09;;;;;;;12.73;8.40;;;;;;;5.76;77.15;98574.56;5075501;28;20206;-76
2022/10/18 04:07:37;;;;;;;16.00;9.70;;;;;;;5.71;77.01;98553.16;5071512;28;20281;-75
2022/10/18 04:10:05;;;;;;;12.43;7.90;;;;;;;5.90;76.99;98569.41;5069590;28;20209;-77
2022/10/18 04:12:32;;;;;;;10.90;7.60;;;;;;;6.14;76.42;98563.34;5063745;28;20193;-78
2022/10/18 04:15:00;;;;;;;12.87;7.20;;;;;;;6.24;75.25;98554.72;5048160;28;20218;-77
2022/10/18 04:17:28;;;;;;;12.77;6.77;;;;;;;6.29;75.51;98564.13;5048551;28;20200;-77
2022/10/18 04:19:56;;;;;;;12.80;7.03;;;;;;;6.25;74.52;98561.56;5048237;28;20226;-77
2022/10/18 04:22:23;;;;;;;11.10;7.90;;;;;;;6.18;75.50;98545.31;5047032;28;20661;-79
2022/10/18 04:24:52;;;;;;;10.40;7.23;;;;;;;5.98;76.25;98546.25;5048612;28;20229;-77
2022/10/18 04:27:19;;;;;;;9.57;6.50;;;;;;;6.01;76.94;98562.53;5047509;28;20285;-77
2022/10/18 04:29:46;;;;;;;12.33;7.07;;;;;;;6.08;76.30;98556.50;5046316;28;20739;-79
2022/10/18 04:32:13;;;;;;;10.97;6.50;;;;;;;5.91;76.20;98571.13;5051190;28;20631;-78
2022/10/18 04:34:40;;;;;;;9.17;6.63;;;;;;;5.84;77.17;98540.28;5064471;28;20552;-76
2022/10/18 04:37:13;;;;;;;11.90;6.90;;;;;;;5.91;77.13;98557.44;5067951;28;20217;-78
2022/10/18 04:39:45;;;;;;;9.90;5.93;;;;;;;5.90;78.12;98558.28;5072527;28;20214;-78
2022/10/18 04:42:19;;;;;;;9.17;6.00;;;;;;;5.90;77.25;98546.28;5068106;28;20206;-76
2022/10/18 04:44:46;;;;;;;10.90;7.00;;;;;;;5.91;77.25;98558.28;5067310;28;20265;-76
2022/10/18 04:47:15;;;;;;;12.30;6.40;;;;;;;5.92;76.51;98536.84;5067477;28;20280;-76
2022/10/18 04:49:42;;;;;;;12.13;6.50;;;;;;;5.95;77.36;98546.28;5067092;28;20226;-76
2022/10/18 04:52:10;;;;;;;10.37;7.07;;;;;;;5.92;77.64;98541.97;5066449;28;20225;-75
2022/10/18 04:54:36;;;;;;;9.40;6.37;;;;;;;5.98;78.04;98549.69;5068320;28;20283;-77
2022/10/18 04:57:03;;;;;;;9.07;6.27;;;;;;;6.08;77.90;98546.19;5067354;28;20577;-77
2022/10/18 04:59:31;;;;;;;10.53;6.90;;;;;;;6.20;77.36;98551.28;5066629;28;20190;-76
2022/10/18 05:01:59;;;;;;;7.93;6.20;;;;;;;6.26;77.58;98545.28;5070992;28;20195;-77
2022/10/18 05:04:27;;;;;;;8.27;6.27;;;;;;;6.46;76.60;98558.91;5067880;28;20187;-80
2022/10/18 05:06:54;;;;;;;11.50;6.77;;;;;;;6.58;75.92;98559.69;5049459;28;20784;-79
2022/10/18 05:09:23;;;;;;;9.23;6.53;;;;;;;6.68;75.65;98546.78;5067372;28;20212;-78
2022/10/18 05:11:50;;;;;;;11.93;7.53;;;;;;;6.98;73.37;98552.56;5066842;28;20192;-79
2022/10/18 05:14:17;;;;;;;7.93;6.20;;;;;;;7.37;71.52;98557.41;5067769;28;20271;-77
2022/10/18 05:16:44;;;;;;;7.87;6.20;;;;;;;7.66;70.92;98562.28;5052796;28;20218;-79
2022/10/18 05:19:12;;;;;;;13.13;6.90;;;;;;;7.93;69.44;98558.56;5067322;28;20271;-75
2022/10/18 05:21:40;;;;;;;12.60;6.63;;;;;;;7.81;68.32;98540.63;5067807;28;20203;-80
2022/10/18 05:24:10;;;;;;;19.00;7.87;;;;;;;7.98;67.55;98555.03;5066133;28;20295;-77
2022/10/18 05:26:37;;;;;;;34.83;13.60;;;;;;;7.62;69.02;98562.31;5066982;28;20191;-75
2022/10/18 05:29:05;;;;;;;27.13;13.97;;;;;;;7.47;69.18;98565.88;5049143;28;20199;-76
2022/10/18 05:31:33;;;;;;;21.40;12.00;;;;;;;7.29;69.80;98553.19;5067228;28;20199;-77
2022/10/18 05:34:02;;;;;;;20.07;9.93;;;;;;;7.51;70.17;98565.00;5049061;28;20214;-76
2022/10/18 05:36:29;;;;;;;17.73;9.77;;;;;;;7.74;69.34;98557.03;5063037;28;20765;-74
2022/10/18 05:38:56;;;;;;;16.97;9.10;;;;;;;7.82;69.00;98565.53;5085087;28;20233;-76
2022/10/18 05:41:30;;;;;;;13.23;7.63;;;;;;;7.80;69.16;98557.81;5071393;28;20192;-78
2022/10/18 05:43:57;;;;;;;14.40;9.03;;;;;;;8.06;69.18;98555.81;5066275;28;20197;-78
2022/10/18 05:46:24;;;;;;;14.93;8.50;;;;;;;8.22;68.20;98565.06;5048835;28;20426;-76
2022/10/18 05:48:51;;;;;;;10.67;7.63;;;;;;;7.91;69.39;98563.72;5065479;28;20260;-78
2022/10/18 05:51:18;;;;;;;8.70;7.37;;;;;;;7.76;69.45;98568.19;5048652;28;20229;-78
2022/10/18 05:53:46;;;;;;;13.67;7.37;;;;;;;7.82;70.27;98570.69;5065878;28;20211;-75
2022/10/18 05:56:15;;;;;;;9.97;7.67;;;;;;;7.95;69.54;98570.56;5065233;28;20204;-78
2022/10/18 05:58:42;;;;;;;10.77;7.27;;;;;;;7.96;70.47;98574.84;5067953;28;20202;-77
2022/10/18 06:01:09;;;;;;;10.47;7.53;;;;;;;8.00;70.45;98576.50;5066485;28;20187;-76
2022/10/18 06:03:40;;;;;;;12.70;7.33;;;;;;;8.20;70.40;98564.22;5065881;28;20929;-80
2022/10/18 06:06:10;;;;;;;11.53;7.20;;;;;;;8.46;70.13;98570.84;5065653;28;20192;-76
2022/10/18 06:08:39;;;;;;;11.47;7.17;;;;;;;8.52;70.54;98560.44;5064672;28;20200;-78
2022/10/18 06:11:09;;;;;;;10.50;6.93;;;;;;;8.69;71.70;98572.25;5065712;28;20217;-77
2022/10/18 06:13:44;;;;;;;8.70;6.70;;;;;;;8.98;70.53;98556.31;5074663;28;20254;-79
2022/10/18 06:16:13;;;;;;;12.33;6.97;;;;;;;9.26;68.91;98569.66;5048274;28;20179;-78
2022/10/18 06:18:41;;;;;;;11.67;7.30;;;;;;;9.26;67.79;98567.94;5065746;28;20198;-78
2022/10/18 06:21:12;;;;;;;11.03;7.03;;;;;;;9.25;67.93;98566.25;5066413;28;20735;-80
2022/10/18 06:23:41;;;;;;;12.97;6.63;;;;;;;9.25;68.29;98562.78;5048226;28;20619;-79
2022/10/18 06:26:10;;;;;;;9.93;6.47;;;;;;;9.27;68.63;98569.66;5065792;28;20196;-79
2022/10/18 06:28:39;;;;;;;11.80;7.53;;;;;;;9.32;67.91;98567.81;5065027;28;20568;-77
2022/10/18 06:31:12;;;;;;;8.73;6.10;;;;;;;9.41;68.56;98575.44;5066400;28;20213;-80
2022/10/18 06:33:40;;;;;;;9.60;6.67;;;;;;;9.62;67.53;98567.28;5065244;28;20212;-79
2022/10/18 06:36:16;;;;;;;8.97;6.10;;;;;;;9.92;66.43;98575.38;5068650;28;20193;-78
2022/10/18 06:38:45;;;;;;;7.27;5.37;;;;;;;10.05;64.81;98569.13;5068882;28;20204;-80
2022/10/18 06:41:14;;;;;;;9.90;7.13;;;;;;;10.09;65.24;98565.59;5049325;28;20189;-79
2022/10/18 06:43:48;;;;;;;9.70;7.23;;;;;;;10.06;65.60;98563.03;5066042;28;20193;-79
2022/10/18 06:46:16;;;;;;;12.60;6.93;;;;;;;10.15;65.20;98557.72;5066846;28;20193;-78
2022/10/18 06:48:44;;;;;;;13.77;6.53;;;;;;;10.39;64.29;98547.72;5067825;28;20280;-79
2022/10/18 06:51:12;;;;;;;10.80;7.00;;;;;;;10.39;64.54;98526.16;5068916;28;20223;-79
2022/10/18 06:53:40;;;;;;;10.10;6.53;;;;;;;10.73;63.48;98560.81;5067998;28;20199;-79
2022/10/18 06:56:25;;;;;;;15.50;9.53;;;;;;;10.89;62.50;98544.03;5069588;28;20208;-78
2022/10/18 06:58:52;;;;;;;13.63;8.40;;;;;;;11.18;61.40;98556.31;5069460;28;20696;-78
2022/10/18 07:01:20;;;;;;;14.83;7.10;;;;;;;11.36;61.77;98546.34;5069314;28;20216;-78
2022/10/18 07:03:50;;;;;;;11.53;7.00;;;;;;;11.52;61.27;98553.75;5068238;28;20249;-79
2022/10/18 07:06:20;;;;;;;11.50;6.67;;;;;;;11.44;60.58;98544.41;5069867;28;20178;-78
2022/10/18 07:08:49;;;;;;;11.63;7.40;;;;;;;11.57;60.81;98526.78;5069404;28;20225;-79
2022/10/18 07:11:19;;;;;;;14.30;8.37;;;;;;;11.75;60.56;98528.91;5067706;28;20580;-77
2022/10/18 07:13:49;;;;;;;15.47;8.40;;;;;;;11.97;60.11;98539.59;5051375;28;20258;-78
2022/10/18 07:16:18;;;;;;;12.03;7.43;;;;;;;12.05;59.13;98528.09;5049927;28;20205;-79
2022/10/18 07:18:50;;;;;;;12.10;7.67;;;;;;;12.29;58.72;98542.13;5067992;28;20191;-77
2022/10/18 07:21:20;;;;;;;12.87;7.90;;;;;;;12.47;58.03;98540.78;5068759;28;20196;-79
2022/10/18 07:23:50;;;;;;;10.70;7.67;;;;;;;12.42;57.69;98514.91;5068756;28;20641;-79
2022/10/18 07:26:28;;;;;;;14.17;6.80;;;;;;;12.68;57.21;98533.16;5068070;28;20190;-79
2022/10/18 07:29:00;;;;;;;16.40;7.87;;;;;;;12.83;56.86;98537.91;5066413;28;20649;-79
2022/10/18 07:31:29;;;;;;;13.57;8.30;;;;;;;12.84;55.34;98510.13;5067671;28;20238;-77
2022/10/18 07:33:58;;;;;;;12.47;7.40;;;;;;;13.14;55.55;98532.63;5068293;28;20183;-79
2022/10/18 07:36:26;;;;;;;13.27;7.40;;;;;;;13.10;56.04;98532.78;5066618;28;20321;-78
2022/10/18 07:38:54;;;;;;;10.23;7.07;;;;;;;13.23;56.88;98528.88;5068041;28;20196;-79
2022/10/18 07:41:22;;;;;;;10.50;6.83;;;;;;;13.35;57.09;98525.88;5050814;28;20627;-79
2022/10/18 07:43:50;;;;;;;14.20;8.93;;;;;;;13.35;58.23;98525.88;5066837;28;20670;-81
2022/10/18 07:46:23;;;;;;;13.07;7.73;;;;;;;13.36;58.00;98506.75;5069702;28;20671;-78
2022/10/18 07:48:53;;;;;;;11.10;8.37;;;;;;;13.44;57.94;98512.53;5051901;28;20429;-77
2022/10/18 07:51:23;;;;;;;15.50;8.80;;;;;;;13.54;58.62;98508.75;5067785;28;20226;-80
2022/10/18 07:53:50;;;;;;;15.57;8.13;;;;;;;13.60;59.48;98498.13;5069689;28;20185;-78
2022/10/18 07:56:26;;;;;;;10.50;7.30;;;;;;;13.71;59.22;98493.38;5068009;28;20193;-79
2022/10/18 07:58:54;;;;;;;11.20;7.47;;;;;;;13.88;59.33;98506.66;5069071;28;20616;-79
2022/10/18 08:01:23;;;;;;;12.07;7.97;;;;;;;14.07;58.50;98497.28;5066346;28;20195;-80
2022/10/18 08:03:51;;;;;;;12.63;7.10;;;;;;;14.14;58.72;98493.53;5067726;28;20184;-80
2022/10/18 08:06:22;;;;;;;12.10;7.60;;;;;;;13.93;58.89;98480.47;5067867;28;20192;-80
2022/10/18 08:08:49;;;;;;;13.03;7.53;;;;;;;13.87;60.04;98492.78;5049504;28;20195;-79
2022/10/18 08:11:26;;;;;;;10.63;7.60;;;;;;;14.06;59.43;98485.16;5068047;28;20924;-81
2022/10/18 08:14:16;;;;;;;10.63;7.47;;;;;;;14.35;59.23;98474.53;5065726;28;20200;-81
2022/10/18 08:16:43;;;;;;;10.30;7.53;;;;;;;14.48;59.20;98460.16;5048624;28;20275;-78
2022/10/18 08:19:10;;;;;;;10.07;7.50;;;;;;;14.61;57.58;98477.00;5067370;28;20204;-78
2022/10/18 08:21:38;;;;;;;10.87;6.80;;;;;;;14.67;57.34;98476.75;5067152;28;20192;-78
2022/10/18 08:24:04;;;;;;;13.00;8.30;;;;;;;14.66;57.33;98442.91;5067008;28;20696;-78
2022/10/18 08:26:34;;;;;;;11.53;6.27;;;;;;;14.88;56.49;98479.44;5066891;28;20297;-78
2022/10/18 08:29:02;;;;;;;10.17;6.30;;;;;;;14.95;55.30;98473.06;5065431;28;20772;-79
2022/10/18 08:31:49;;;;;;;6.53;5.50;;;;;;;15.02;53.05;98458.84;5066672;28;20232;-78
2022/10/18 08:34:17;;;;;;;7.57;4.67;;;;;;;15.08;52.85;98480.34;5066819;28;20199;-77
2022/10/18 08:36:46;;;;;;;11.77;6.10;;;;;;;15.14;53.50;98461.81;5066656;28;20182;-78
2022/10/18 08:39:13;;;;;;;9.07;5.27;;;;;;;15.17;52.44;98451.25;5066730;28;20223;-79
2022/10/18 08:42:18;;;;;;;8.97;7.33;;;;;;;15.38;52.91;98459.94;5067005;28;20217;-80
2022/10/18 08:44:51;;;;;;;8.50;5.30;;;;;;;15.07;52.75;98443.84;5066686;28;20276;-77
2022/10/18 08:47:23;;;;;;;12.63;5.90;;;;;;;15.26;53.07;98448.25;5065164;28;20182;-80
2022/10/18 08:49:55;;;;;;;10.57;5.03;;;;;;;15.07;52.95;98443.84;5066837;28;20177;-79
2022/10/18 08:52:46;;;;;;;8.13;5.13;;;;;;;15.11;52.03;98442.81;5066524;28;20244;-78
2022/10/18 08:55:35;;;;;;;9.37;4.30;;;;;;;15.17;50.78;98430.34;5066267;28;20272;-78
2022/10/18 08:58:22;;;;;;;10.13;6.03;;;;;;;15.37;50.93;98430.34;5064912;28;20283;-79
2022/10/18 09:00:52;;;;;;;7.87;5.27;;;;;;;15.63;50.04;98424.06;5066345;28;20706;-78
2022/10/18 09:03:54;;;;;;;6.83;4.43;;;;;;;15.78;47.34;98430.38;5066457;28;20199;-77
2022/10/18 09:06:38;;;;;;;7.33;3.83;;;;;;;15.88;47.75;98415.97;5065891;28;20189;-78
2022/10/18 09:09:44;;;;;;;8.73;4.10;;;;;;;16.19;47.14;98422.38;5065292;28;20190;-77
2022/10/18 09:12:26;;;;;;;8.23;4.67;;;;;;;16.22;46.73;98424.81;5064466;28;20228;-77
2022/10/18 09:15:19;;;;;;;6.80;4.90;;;;;;;16.26;44.78;98415.91;5063832;28;20200;-78
2022/10/18 09:17:58;;;;;;;9.10;3.67;;;;;;;16.04;45.15;98412.59;5060051;28;20213;-78
2022/10/18 09:20:43;;;;;;;4.73;3.60;;;;;;;16.39;44.66;98412.72;5065883;28;20578;-78
2022/10/18 09:23:19;;;;;;;6.67;3.93;;;;;;;16.24;43.50;98359.41;5064876;28;20189;-78
2022/10/18 09:25:55;;;;;;;4.80;2.93;;;;;;;16.51;41.66;98409.56;5065836;28;20186;-78
2022/10/18 09:28:51;;;;;;;5.97;2.80;;;;;;;16.43;40.77;98402.06;5066096;28;20188;-78
2022/10/18 09:31:31;;;;;;;6.03;4.10;;;;;;;16.66;41.39;98399.22;5065486;28;20226;-78
2022/10/18 09:34:05;;;;;;;9.50;3.60;;;;;;;16.89;41.50;98395.50;5065720;28;20652;-79
2022/10/18 09:36:37;;;;;;;7.87;3.57;;;;;;;16.98;41.82;98384.59;5064309;28;20288;-79
2022/10/18 09:39:10;;;;;;;7.20;3.73;;;;;;;16.96;42.49;98381.19;5065553;28;20220;-78
2022/10/18 09:41:39;;;;;;;4.67;3.30;;;;;;;16.98;41.39;98374.13;5065800;28;20212;-78
2022/10/18 09:44:15;;;;;;;3.70;3.07;;;;;;;16.85;39.58;98381.72;5059991;28;20201;-79
2022/10/18 09:46:52;;;;;;;3.80;2.87;;;;;;;16.95;39.33;98374.25;5073879;28;20289;-80
2022/10/18 09:49:42;;;;;;;3.63;2.93;;;;;;;16.67;42.15;98371.31;5088959;28;20275;-78
2022/10/18 09:52:38;;;;;;;8.43;2.93;;;;;;;16.50;42.32;98364.28;5074505;28;20312;-79
2022/10/18 09:55:20;;;;;;;5.10;3.20;;;;;;;16.87;43.66;98360.72;5059195;28;20222;-79
2022/10/18 09:57:53;;;;;;;6.53;3.80;;;;;;;16.89;43.26;98358.84;5086131;28;20192;-78
2022/10/18 10:00:27;;;;;;;10.53;3.90;;;;;;;16.98;43.36;98358.41;5084984;28;20222;-79
2022/10/18 10:02:54;;;;;;;6.53;3.80;;;;;;;17.28;42.93;98345.50;5072192;28;20229;-78
2022/10/18 10:05:21;;;;;;;6.70;3.53;;;;;;;17.39;42.65;98338.81;5065650;28;20303;-78
2022/10/18 10:07:48;;;;;;;8.73;3.63;;;;;;;17.57;41.98;98318.69;5066106;28;20272;-79
2022/10/18 10:10:26;;;;;;;5.73;3.23;;;;;;;17.44;41.86;98325.44;5064081;28;20255;-78
2022/10/18 10:13:26;;;;;;;7.30;3.60;;;;;;;17.52;40.61;98316.31;5066278;28;20278;-80
2022/10/18 10:15:56;;;;;;;9.63;3.93;;;;;;;17.82;38.10;98312.06;5064856;28;20643;-79
2022/10/18 10:18:35;;;;;;;10.63;3.40;;;;;;;18.03;37.22;98296.91;5064610;28;20570;-78
2022/10/18 10:21:12;;;;;;;4.40;2.93;;;;;;;18.29;36.73;98305.94;5066827;28;20200;-78
2022/10/18 10:23:52;;;;;;;3.83;3.10;;;;;;;18.38;35.80;98284.44;5069954;28;20251;-79
2022/10/18 10:26:29;;;;;;;5.27;2.83;;;;;;;18.54;34.98;98280.03;5069649;28;20226;-79
2022/10/18 10:28:57;;;;;;;5.70;3.07;;;;;;;18.29;35.84;98284.94;5068019;28;20228;-76
2022/10/18 10:31:26;;;;;;;4.23;2.60;;;;;;;18.51;36.09;98280.19;5069452;28;20262;-81
2022/10/18 10:34:13;;;;;;;3.13;2.63;;;;;;;18.56;35.04;98275.53;5068831;28;20241;-77
2022/10/18 10:36:50;;;;;;;3.87;2.70;;;;;;;18.69;34.18;98272.09;5063844;28;20323;-79
2022/10/18 10:39:22;;;;;;;6.67;3.13;;;;;;;18.73;33.14;98267.53;5051814;28;20218;-79
2022/10/18 10:41:56;;;;;;;3.27;2.57;;;;;;;18.63;33.83;98255.88;5079444;28;20286;-80
2022/10/18 10:44:53;;;;;;;7.60;3.17;;;;;;;18.76;33.80;98246.34;5070073;28;20195;-77
2022/10/18 10:47:35;;;;;;;6.30;2.83;;;;;;;18.92;33.95;98244.50;5069475;28;20219;-78
2022/10/18 10:50:21;;;;;;;7.13;3.00;;;;;;;19.00;33.89;98239.63;5070913;28;20190;-82
2022/10/18 10:52:48;;;;;;;5.67;3.20;;;;;;;19.05;33.67;98239.34;5075270;28;20222;-78
2022/10/18 10:55:23;;;;;;;10.20;4.23;;;;;;;19.00;33.79;98231.75;5089414;28;20184;-80
2022/10/18 10:58:03;;;;;;;3.83;2.30;;;;;;;19.03;34.30;98215.81;5086652;28;20276;-80
2022/10/18 11:00:41;;;;;;;5.07;2.70;;;;;;;19.22;34.40;98221.63;5089739;28;20187;-79
2022/10/18 11:03:20;;;;;;;4.97;2.80;;;;;;;19.18;34.41;98217.50;5089916;28;20195;-82
2022/10/18 11:06:00;;;;;;;4.57;2.57;;;;;;;19.07;34.51;98201.56;5088568;28;20221;-80
2022/10/18 11:08:37;;;;;;;3.40;2.40;;;;;;;19.18;34.06;98203.53;5071094;28;20211;-81
2022/10/18 11:11:17;;;;;;;3.30;2.20;;;;;;;19.07;33.04;98208.59;5089368;28;20701;-81
2022/10/18 11:13:53;;;;;;;8.93;3.00;;;;;;;19.21;33.37;98196.28;5089321;28;20608;-82
2022/10/18 11:17:06;;;;;;;6.43;3.17;;;;;;;19.29;34.16;98193.19;5088923;28;20279;-81
2022/10/18 11:20:00;;;;;;;8.90;2.83;;;;;;;19.25;34.42;98179.41;5087666;28;20497;-80
2022/10/18 11:22:35;;;;;;;6.63;4.20;;;;;;;19.17;33.77;98173.78;5077018;28;20208;-81
2022/10/18 11:25:04;;;;;;;7.33;2.90;;;;;;;19.18;33.13;98172.88;5068954;28;20189;-81
2022/10/18 11:27:39;;;;;;;5.97;3.27;;;;;;;19.26;33.53;98167.97;5051058;28;20832;-80
2022/10/18 11:30:25;;;;;;;4.97;2.60;;;;;;;19.36;33.50;98155.97;5068853;28;20280;-78
2022/10/18 11:33:13;;;;;;;8.20;4.20;;;;;;;19.39;33.83;98161.03;5066269;28;20240;-79
2022/10/18 11:36:07;;;;;;;4.90;2.93;;;;;;;19.35;33.57;98154.28;5068460;28;20203;-79
2022/10/18 11:38:54;;;;;;;7.40;3.67;;;;;;;19.53;33.36;98151.44;5068422;28;20199;-78
2022/10/18 11:41:32;;;;;;;6.43;3.33;;;;;;;19.64;33.01;98146.34;5067942;28;20196;-77
2022/10/18 11:44:03;;;;;;;3.43;2.43;;;;;;;19.60;32.79;98139.59;5071528;28;20201;-79
2022/10/18 11:47:22;;;;;;;6.97;2.80;;;;;;;19.51;32.97;98137.56;5069158;28;20212;-79
2022/10/18 11:49:49;;;;;;;4.50;2.70;;;;;;;19.61;32.72;98136.00;5055098;28;20199;-81
2022/10/18 11:52:25;;;;;;;4.50;3.67;;;;;;;19.47;33.55;98123.78;5068182;28;20260;-79
2022/10/18 11:55:24;;;;;;;3.93;2.60;;;;;;;19.59;33.60;98127.38;5068365;28;20200;-80
2022/10/18 11:58:16;;;;;;;3.20;2.20;;;;;;;19.51;33.33;98113.91;5067873;28;20188;-79
2022/10/18 12:00:51;;;;;;;3.20;1.97;;;;;;;19.57;33.04;98105.63;5067588;28;20342;-78